Time;durP1;ratioP1;P1;durP2;ratioP2;P2;SDS_P1;SDS_P2;PMS_P1;PMS_P2;Temp;Humidity;BMP_temperature;BMP_pressure;BME280_temperature;BME280_humidity;BME280_pressure;Samples;Min_cycle;Max_cycle;Signal;HPM_P1;HPM_P2
2023/04/13 00:00:37;;;;;;;1.00;1.00;;;;;;;8.47;79.70;97202.47;7391678;19;19919;-81
2023/04/13 00:03:04;;;;;;;2.45;2.35;;;;;;;8.51;79.48;97201.97;7393902;19;20605;-84
2023/04/13 00:05:33;;;;;;;1.02;0.98;;;;;;;8.52;79.68;97202.78;7391285;19;20325;-80
2023/04/13 00:08:02;;;;;;;2.45;2.25;;;;;;;8.54;79.50;97192.88;7394881;19;20262;-81
2023/04/13 00:10:35;;;;;;;1.48;1.38;;;;;;;8.52;79.64;97194.88;7391176;19;19970;-82
2023/04/13 00:13:03;;;;;;;0.85;0.65;;;;;;;8.43;79.36;97190.63;7392275;19;19942;-80
2023/04/13 00:15:33;;;;;;;1.05;1.05;;;;;;;8.43;79.34;97204.63;7391528;19;20329;-80
2023/04/13 00:18:00;;;;;;;1.05;0.85;;;;;;;8.42;79.31;97208.25;7393635;19;19914;-79
2023/04/13 00:20:28;;;;;;;0.93;0.93;;;;;;;8.34;79.21;97214.31;7388128;19;19915;-81
2023/04/13 00:22:55;;;;;;;0.65;0.65;;;;;;;8.27;78.96;97213.38;7390119;19;20411;-80
2023/04/13 00:25:22;;;;;;;1.08;0.98;;;;;;;8.25;79.19;97227.72;7392315;19;19926;-82
2023/04/13 00:27:51;;;;;;;0.68;0.68;;;;;;;8.18;79.50;97227.56;7395098;19;19919;-80
2023/04/13 00:30:20;;;;;;;0.95;0.95;;;;;;;8.24;79.39;97223.41;7388239;19;19999;-80
2023/04/13 00:32:47;;;;;;;2.13;1.85;;;;;;;8.21;79.50;97218.50;7388863;19;20322;-82
2023/04/13 00:35:23;;;;;;;1.40;1.30;;;;;;;8.26;79.60;97218.81;7387261;19;19990;-80
2023/04/13 00:37:51;;;;;;;1.00;0.95;;;;;;;8.32;79.29;97220.75;7397272;19;19935;-83
2023/04/13 00:40:18;;;;;;;1.05;1.05;;;;;;;8.36;79.38;97215.00;7387888;19;20153;-81
2023/04/13 00:42:47;;;;;;;0.93;0.93;;;;;;;8.38;79.41;97208.75;7391253;19;19922;-82
2023/04/13 00:45:16;;;;;;;1.10;1.10;;;;;;;8.43;79.44;97214.34;7390752;19;19922;-83
2023/04/13 00:47:47;;;;;;;1.48;1.38;;;;;;;8.35;79.20;97215.16;7394248;19;19926;-82
2023/04/13 00:50:16;;;;;;;2.03;1.92;;;;;;;8.47;78.99;97215.66;7386948;19;20256;-81
2023/04/13 00:52:47;;;;;;;0.82;0.70;;;;;;;8.44;78.83;97211.53;7389852;19;19914;-83
2023/04/13 00:55:19;;;;;;;0.82;0.80;;;;;;;8.46;78.71;97214.00;7389381;19;19922;-83
2023/04/13 00:57:48;;;;;;;1.15;1.05;;;;;;;8.44;78.86;97218.63;7394522;19;19947;-81
2023/04/13 01:00:16;;;;;;;0.85;0.85;;;;;;;8.40;78.64;97215.53;7396330;19;19918;-79
2023/04/13 01:02:43;;;;;;;1.42;1.17;;;;;;;8.43;78.58;97217.00;7396856;19;19943;-81
2023/04/13 01:05:13;;;;;;;1.00;0.90;;;;;;;8.44;78.81;97216.00;7397420;19;19923;-82
2023/04/13 01:07:59;;;;;;;1.00;1.00;;;;;;;8.42;78.80;97228.50;7400640;19;19940;-81
2023/04/13 01:10:38;;;;;;;1.08;0.98;;;;;;;8.47;78.50;97223.56;7396626;19;19926;-82
2023/04/13 01:13:31;;;;;;;1.05;1.05;;;;;;;8.46;78.43;97229.81;7398514;19;19922;-82
2023/04/13 01:16:03;;;;;;;1.23;1.13;;;;;;;8.28;78.00;97230.81;7399256;19;19918;-81
2023/04/13 01:18:38;;;;;;;1.98;1.40;;;;;;;8.35;77.63;97242.34;7396585;19;19966;-82
2023/04/13 01:21:11;;;;;;;0.88;0.88;;;;;;;8.33;77.64;97236.41;7395171;19;19986;-82
2023/04/13 01:24:05;;;;;;;1.23;1.13;;;;;;;8.35;77.85;97239.72;7400002;19;19910;-82
2023/04/13 01:26:47;;;;;;;1.50;1.17;;;;;;;8.33;77.98;97241.69;7398152;19;19923;-82
2023/04/13 01:29:16;;;;;;;2.30;0.88;;;;;;;8.28;77.66;97230.00;7397284;19;19922;-81
2023/04/13 01:31:47;;;;;;;1.00;0.98;;;;;;;8.29;77.47;97227.22;7399749;19;20530;-81
2023/04/13 01:34:15;;;;;;;1.63;1.10;;;;;;;8.21;77.24;97223.75;7388381;19;20376;-81
2023/04/13 01:36:42;;;;;;;1.55;1.17;;;;;;;8.20;77.09;97228.22;7400036;19;19935;-82
2023/04/13 01:39:17;;;;;;;1.80;1.70;;;;;;;8.17;76.98;97227.75;7400687;19;19922;-82
2023/04/13 01:41:45;;;;;;;1.13;1.08;;;;;;;8.13;76.62;97225.41;7398503;19;19926;-80
2023/04/13 01:44:13;;;;;;;1.95;1.85;;;;;;;8.08;76.57;97221.66;7395182;19;19911;-81
2023/04/13 01:46:46;;;;;;;1.45;0.95;;;;;;;8.00;76.59;97219.03;7398370;19;19926;-81
2023/04/13 01:49:34;;;;;;;2.28;2.15;;;;;;;7.95;76.55;97221.34;7395455;19;19922;-82
2023/04/13 01:52:12;;;;;;;1.13;1.02;;;;;;;7.90;76.52;97214.78;7394193;19;19937;-83
2023/04/13 01:54:39;;;;;;;0.80;0.77;;;;;;;7.78;76.65;97215.28;7400572;19;19910;-80
2023/04/13 01:57:06;;;;;;;3.42;0.88;;;;;;;7.75;76.74;97208.56;7402427;19;19923;-81
2023/04/13 01:59:34;;;;;;;2.75;1.20;;;;;;;7.70;76.65;97206.41;7399345;19;19942;-82
2023/04/13 02:02:01;;;;;;;1.95;1.83;;;;;;;7.65;76.75;97200.00;7400299;19;19928;-82
2023/04/13 02:04:30;;;;;;;1.63;1.35;;;;;;;7.60;76.95;97194.41;7393960;19;19922;-81
2023/04/13 02:06:57;;;;;;;0.80;0.80;;;;;;;7.58;76.92;97188.50;7401431;19;19959;-81
2023/04/13 02:09:29;;;;;;;1.73;1.20;;;;;;;7.56;77.00;97198.38;7396338;19;19929;-81
2023/04/13 02:11:57;;;;;;;0.95;0.80;;;;;;;7.52;77.12;97202.31;7393594;19;19914;-83
2023/04/13 02:14:24;;;;;;;2.17;0.75;;;;;;;7.52;77.32;97195.25;7395706;19;19926;-82
2023/04/13 02:16:51;;;;;;;1.80;1.70;;;;;;;7.51;77.54;97198.88;7402878;19;19918;-80
2023/04/13 02:19:19;;;;;;;2.17;1.95;;;;;;;7.55;77.62;97200.16;7397385;19;19934;-83
2023/04/13 02:21:46;;;;;;;2.17;0.85;;;;;;;7.54;77.58;97205.63;7399795;19;20634;-82
2023/04/13 02:24:13;;;;;;;1.08;0.98;;;;;;;7.57;77.40;97203.47;7398026;19;19947;-82
2023/04/13 02:26:40;;;;;;;1.23;1.02;;;;;;;7.59;77.46;97209.38;7398944;19;19929;-82
2023/04/13 02:29:07;;;;;;;1.50;1.40;;;;;;;7.59;77.36;97206.75;7396645;19;19918;-82
2023/04/13 02:31:34;;;;;;;1.50;1.40;;;;;;;7.56;76.88;97204.47;7395453;19;19914;-81
2023/04/13 02:34:01;;;;;;;1.90;1.80;;;;;;;7.60;76.45;97208.38;7398500;19;19911;-81
2023/04/13 02:36:29;;;;;;;2.10;2.00;;;;;;;7.56;76.28;97204.47;7396640;19;19919;-82
2023/04/13 02:39:00;;;;;;;1.95;1.67;;;;;;;7.58;76.95;97210.38;7399729;19;19930;-82
2023/04/13 02:41:29;;;;;;;1.65;1.17;;;;;;;7.61;76.92;97214.47;7395802;19;19926;-83
2023/04/13 02:43:56;;;;;;;0.93;0.93;;;;;;;7.58;76.87;97210.38;7397817;19;19914;-81
2023/04/13 02:46:26;;;;;;;1.50;1.40;;;;;;;7.62;76.87;97211.69;7392172;19;20335;-81
2023/04/13 02:49:13;;;;;;;1.75;0.65;;;;;;;7.61;76.63;97214.47;7394196;19;19933;-83
2023/04/13 02:51:51;;;;;;;1.00;0.80;;;;;;;7.61;76.49;97220.59;7394757;19;19975;-83
2023/04/13 02:54:24;;;;;;;1.45;1.08;;;;;;;7.62;76.69;97219.59;7390708;19;19922;-80
2023/04/13 02:56:52;;;;;;;1.90;1.80;;;;;;;7.59;76.60;97217.28;7396896;19;20252;-82
2023/04/13 02:59:20;;;;;;;1.05;1.05;;;;;;;7.57;76.63;97218.44;7392813;19;20388;-83
2023/04/13 03:01:47;;;;;;;1.27;1.15;;;;;;;7.48;76.31;97223.69;7395375;19;19911;-83
2023/04/13 03:04:17;;;;;;;2.03;1.92;;;;;;;7.47;76.31;97224.66;7392458;19;19915;-84
2023/04/13 03:06:44;;;;;;;1.52;0.93;;;;;;;7.43;76.07;97226.00;7399658;19;19918;-84
2023/04/13 03:09:11;;;;;;;1.20;1.15;;;;;;;7.42;76.16;97224.34;7397758;19;19974;-82
2023/04/13 03:11:45;;;;;;;1.52;1.40;;;;;;;7.41;76.10;97227.97;7394516;19;19926;-83
2023/04/13 03:14:20;;;;;;;3.63;1.27;;;;;;;7.40;75.95;97233.41;7389754;19;19930;-83
2023/04/13 03:16:51;;;;;;;2.80;2.20;;;;;;;7.36;76.18;97226.81;7395381;19;19925;-81
2023/04/13 03:19:22;;;;;;;1.35;1.08;;;;;;;7.32;76.13;97223.69;7391464;19;19926;-82
2023/04/13 03:21:49;;;;;;;1.67;1.23;;;;;;;7.29;76.24;97221.38;7390365;19;19915;-82
2023/04/13 03:24:19;;;;;;;;;;;;;;;7.29;76.59;97223.19;7395973;19;19914;-83
2023/04/13 03:26:47;;;;;;;0.98;0.98;;;;;;;7.26;76.43;97224.34;7396778;19;19925;-82
2023/04/13 03:29:19;;;;;;;1.17;0.85;;;;;;;7.16;76.14;97231.56;7392674;19;20343;-81
2023/04/13 03:31:46;;;;;;;1.35;1.25;;;;;;;7.12;76.20;97219.72;7413267;19;19946;-83
2023/04/13 03:34:13;;;;;;;1.58;1.48;;;;;;;7.07;76.31;97233.34;7414641;19;19899;-83
2023/04/13 03:36:42;;;;;;;3.58;2.85;;;;;;;7.01;76.17;97231.38;7394057;19;20274;-84
2023/04/13 03:39:09;;;;;;;2.83;1.80;;;;;;;7.00;76.47;97229.72;7394229;19;20028;-82
2023/04/13 03:41:37;;;;;;;1.73;1.35;;;;;;;6.98;76.66;97235.16;7387984;19;19922;-80
2023/04/13 03:44:06;;;;;;;3.22;1.98;;;;;;;6.92;76.54;97241.03;7393098;19;19943;-82
2023/04/13 03:46:37;;;;;;;1.85;1.65;;;;;;;6.96;76.92;97237.13;7391327;19;19943;-83
2023/04/13 03:49:14;;;;;;;1.30;1.20;;;;;;;6.93;76.84;97247.16;7394144;19;19910;-81
2023/04/13 03:51:41;;;;;;;0.90;0.90;;;;;;;6.92;76.71;97250.75;7389280;19;19925;-82
2023/04/13 03:54:08;;;;;;;1.38;1.27;;;;;;;6.92;77.25;97250.75;7393307;19;19923;-84
2023/04/13 03:56:35;;;;;;;1.02;0.93;;;;;;;6.93;77.28;97252.41;7393516;19;19907;-85
2023/04/13 03:59:02;;;;;;;1.33;1.17;;;;;;;6.93;77.20;97257.66;7395149;19;19914;-82
2023/04/13 04:01:29;;;;;;;1.55;1.45;;;;;;;6.96;77.34;97263.41;7389216;19;19922;-80
2023/04/13 04:03:56;;;;;;;1.58;1.48;;;;;;;7.00;77.67;97270.00;7398238;19;19911;-81
2023/04/13 04:06:26;;;;;;;1.73;1.63;;;;;;;7.11;78.05;97276.78;7393501;19;19926;-81
2023/04/13 04:09:05;;;;;;;1.35;1.23;;;;;;;7.24;78.27;97271.03;7397514;19;19948;-80
2023/04/13 04:11:40;;;;;;;2.25;2.15;;;;;;;7.33;78.31;97270.06;7389057;19;20556;-82
2023/04/13 04:14:08;;;;;;;1.58;1.40;;;;;;;7.40;78.54;97276.34;7395317;19;19929;-82
2023/04/13 04:16:36;;;;;;;2.13;1.55;;;;;;;7.45;78.25;97278.44;7389155;19;19926;-81
2023/04/13 04:19:08;;;;;;;7.93;2.25;;;;;;;7.53;78.18;97275.00;7395671;19;19919;-83
2023/04/13 04:21:35;;;;;;;1.67;1.40;;;;;;;7.56;77.97;97280.78;7390370;19;19939;-80
2023/04/13 04:24:11;;;;;;;1.35;1.25;;;;;;;7.57;77.66;97273.72;7395876;19;19926;-81
2023/04/13 04:26:48;;;;;;;1.38;1.23;;;;;;;7.57;77.84;97277.16;7390426;19;20292;-82
2023/04/13 04:29:16;;;;;;;1.38;1.27;;;;;;;7.58;77.52;97272.72;7395039;19;19922;-78
2023/04/13 04:31:43;;;;;;;2.25;1.52;;;;;;;7.51;77.34;97262.03;7387909;19;19929;-81
2023/04/13 04:34:15;;;;;;;2.33;1.25;;;;;;;7.47;77.17;97266.78;7392030;19;19927;-81
2023/04/13 04:36:44;;;;;;;1.45;1.13;;;;;;;7.51;77.02;97263.84;7390926;19;19932;-81
2023/04/13 04:39:13;;;;;;;1.13;1.08;;;;;;;7.48;76.99;97271.06;7394823;19;19914;-80
2023/04/13 04:41:53;;;;;;;3.17;1.23;;;;;;;7.48;76.58;97268.44;7393321;19;19938;-82
2023/04/13 04:44:23;;;;;;;3.25;2.28;;;;;;;7.58;77.17;97272.72;7395374;19;21107;-82
2023/04/13 04:46:51;;;;;;;3.95;1.63;;;;;;;7.62;77.14;97264.34;7392603;19;19985;-80
2023/04/13 04:49:20;;;;;;;1.83;1.05;;;;;;;7.66;77.09;97268.28;7395360;19;19974;-80
2023/04/13 04:51:48;;;;;;;2.90;1.35;;;;;;;7.59;76.71;97269.13;7392866;19;19910;-82
2023/04/13 04:54:17;;;;;;;2.33;1.92;;;;;;;7.65;76.01;97271.06;7394186;19;19915;-81
2023/04/13 04:56:47;;;;;;;3.60;1.00;;;;;;;7.78;75.32;97268.78;7392233;19;19931;-82
2023/04/13 04:59:18;;;;;;;2.20;1.23;;;;;;;7.76;75.65;97269.91;7395740;19;19943;-80
2023/04/13 05:01:54;;;;;;;2.92;1.40;;;;;;;7.67;75.81;97271.75;7391824;19;19926;-81
2023/04/13 05:04:21;;;;;;;1.92;1.38;;;;;;;7.63;75.54;97265.97;7390423;19;19922;-81
2023/04/13 05:06:48;;;;;;;2.15;1.02;;;;;;;7.91;74.95;97265.63;7391336;19;19942;-80
2023/04/13 05:09:19;;;;;;;3.75;1.33;;;;;;;7.98;75.23;97268.41;7390937;19;19926;-81
2023/04/13 05:11:50;;;;;;;;;;;;;;;7.93;74.66;97270.75;7394174;19;19925;-81
2023/04/13 05:14:19;;;;;;;2.67;2.50;;;;;;;7.75;75.19;97263.03;7392696;19;20281;-81
2023/04/13 05:16:46;;;;;;;1.98;1.73;;;;;;;7.70;75.40;97272.22;7387911;19;20370;-81
2023/04/13 05:19:22;;;;;;;3.97;2.10;;;;;;;7.72;75.48;97268.63;7390346;19;19929;-77
2023/04/13 05:21:52;;;;;;;2.00;1.90;;;;;;;7.74;75.16;97278.00;7389542;19;19919;-83
2023/04/13 05:24:20;;;;;;;3.50;1.83;;;;;;;7.79;75.40;97275.66;7391943;19;19926;-81
2023/04/13 05:26:48;;;;;;;2.13;1.92;;;;;;;7.81;75.48;97278.97;7389331;19;19918;-81
2023/04/13 05:29:20;;;;;;;1.63;1.20;;;;;;;7.89;75.22;97278.16;7393275;19;19930;-79
2023/04/13 05:31:47;;;;;;;4.88;1.25;;;;;;;7.90;74.91;97278.00;7386992;19;19915;-79
2023/04/13 05:34:15;;;;;;;3.70;1.48;;;;;;;7.95;74.65;97281.91;7387932;19;19947;-82
2023/04/13 05:36:57;;;;;;;2.35;1.55;;;;;;;8.02;74.82;97280.28;7392664;19;19974;-80
2023/04/13 05:39:24;;;;;;;2.58;1.02;;;;;;;7.98;74.27;97287.69;7394053;19;19943;-81
2023/04/13 05:41:51;;;;;;;1.95;1.45;;;;;;;8.01;73.25;97289.19;7392544;19;19979;-80
2023/04/13 05:44:18;;;;;;;1.23;1.02;;;;;;;8.03;74.06;97290.66;7396789;19;19926;-80
2023/04/13 05:46:51;;;;;;;4.35;2.25;;;;;;;8.10;73.24;97296.88;7396355;19;19994;-79
2023/04/13 05:49:17;;;;;;;3.05;1.73;;;;;;;8.17;73.72;97302.31;7400722;19;19918;-80
2023/04/13 05:51:45;;;;;;;2.00;1.25;;;;;;;8.16;73.72;97305.94;7396205;19;19911;-80
2023/04/13 05:54:12;;;;;;;1.75;1.58;;;;;;;8.21;73.77;97311.53;7399766;19;19923;-77
2023/04/13 05:56:46;;;;;;;2.28;2.10;;;;;;;8.16;73.47;97313.84;7395958;19;20559;-80
2023/04/13 05:59:13;;;;;;;4.20;1.50;;;;;;;8.20;72.94;97314.34;7403210;19;19918;-80
2023/04/13 06:01:39;;;;;;;3.25;2.28;;;;;;;8.24;73.06;97319.13;7394181;19;19914;-80
2023/04/13 06:04:08;;;;;;;5.20;1.70;;;;;;;8.18;73.35;97316.31;7399109;19;19915;-78
2023/04/13 06:06:35;;;;;;;2.83;1.40;;;;;;;8.24;72.84;97326.19;7394144;19;19922;-79
2023/04/13 06:09:04;;;;;;;2.35;1.17;;;;;;;8.19;72.72;97321.44;7394456;19;19914;-81
2023/04/13 06:11:31;;;;;;;2.22;0.90;;;;;;;8.24;72.22;97327.03;7396439;19;19947;-81
2023/04/13 06:13:58;;;;;;;3.97;2.00;;;;;;;8.22;72.19;97326.38;7401701;19;19926;-79
2023/04/13 06:16:25;;;;;;;2.08;1.35;;;;;;;8.28;72.46;97327.50;7402237;19;19915;-80
2023/04/13 06:18:53;;;;;;;1.55;1.45;;;;;;;8.39;72.95;97326.34;7396129;19;19974;-81
2023/04/13 06:21:20;;;;;;;2.78;1.20;;;;;;;8.43;72.08;97319.78;7401416;19;20011;-78
2023/04/13 06:23:48;;;;;;;3.92;2.17;;;;;;;8.39;71.60;97323.69;7401246;19;19918;-82
2023/04/13 06:26:26;;;;;;;7.28;1.73;;;;;;;8.40;71.57;97326.22;7402114;19;19930;-81
2023/04/13 06:28:55;;;;;;;3.75;1.60;;;;;;;8.38;71.32;97320.25;7401747;19;19910;-79
2023/04/13 06:31:26;;;;;;;2.70;0.93;;;;;;;8.48;71.38;97320.91;7401578;19;19926;-83
2023/04/13 06:33:56;;;;;;;2.58;1.20;;;;;;;8.45;71.49;97328.31;7399616;19;19961;-80
2023/04/13 06:36:27;;;;;;;2.05;1.55;;;;;;;8.56;71.09;97335.91;7402836;19;21083;-78
2023/04/13 06:39:00;;;;;;;2.80;1.50;;;;;;;8.71;71.36;97339.47;7398889;19;19914;-79
2023/04/13 06:41:28;;;;;;;1.75;1.35;;;;;;;8.66;69.91;97333.91;7396146;19;19932;-80
2023/04/13 06:44:11;;;;;;;1.48;1.08;;;;;;;8.60;69.58;97334.56;7400822;19;19922;-80
2023/04/13 06:46:49;;;;;;;2.58;0.95;;;;;;;8.69;69.45;97330.06;7392518;19;20264;-80
2023/04/13 06:49:18;;;;;;;2.72;1.30;;;;;;;8.77;69.88;97338.81;7397634;19;20620;-81
2023/04/13 06:51:45;;;;;;;2.78;1.20;;;;;;;8.68;70.00;97323.97;7391069;19;19923;-80
2023/04/13 06:54:14;;;;;;;2.33;1.05;;;;;;;8.77;69.17;97328.25;7398202;19;19982;-78
2023/04/13 06:56:45;;;;;;;2.38;1.15;;;;;;;8.82;68.87;97322.47;7397532;19;19943;-81
2023/04/13 06:59:13;;;;;;;2.22;1.55;;;;;;;8.86;69.56;97322.94;7400476;19;19926;-80
2023/04/13 07:01:40;;;;;;;2.83;1.33;;;;;;;8.82;68.81;97324.25;7393445;19;19974;-79
2023/04/13 07:04:06;;;;;;;3.25;1.33;;;;;;;8.84;68.06;97327.56;7394429;19;19914;-77
2023/04/13 07:06:35;;;;;;;3.47;1.27;;;;;;;8.81;67.41;97328.72;7392920;19;19931;-81
2023/04/13 07:09:02;;;;;;;1.42;1.15;;;;;;;8.72;68.29;97327.13;7397602;19;20342;-79
2023/04/13 07:11:30;;;;;;;2.53;2.33;;;;;;;8.74;67.69;97328.59;7396441;19;20263;-79
2023/04/13 07:13:59;;;;;;;1.95;1.65;;;;;;;8.86;67.25;97325.59;7397177;19;19919;-78
2023/04/13 07:16:28;;;;;;;2.88;1.35;;;;;;;8.78;67.73;97326.44;7396204;19;19935;-78
2023/04/13 07:18:56;;;;;;;2.40;0.73;;;;;;;8.75;67.85;97337.31;7393125;19;19921;-79
2023/04/13 07:21:23;;;;;;;2.40;1.30;;;;;;;8.87;67.75;97327.22;7394916;19;19943;-79
2023/04/13 07:24:02;;;;;;;5.38;1.70;;;;;;;8.84;68.23;97327.56;7400469;19;19938;-79
2023/04/13 07:26:30;;;;;;;2.42;0.88;;;;;;;8.91;67.79;97333.81;7400495;19;19935;-81
2023/04/13 07:29:01;;;;;;;2.65;1.10;;;;;;;8.84;68.52;97333.66;7395831;19;20009;-80
2023/04/13 07:31:33;;;;;;;3.20;1.63;;;;;;;8.93;67.87;97337.91;7391452;19;20333;-79
2023/04/13 07:34:01;;;;;;;3.75;1.33;;;;;;;8.97;67.44;97338.38;7400496;19;19948;-79
2023/04/13 07:36:36;;;;;;;1.92;1.65;;;;;;;9.16;67.73;97331.88;7392847;19;19939;-80
2023/04/13 07:39:10;;;;;;;3.60;1.40;;;;;;;9.18;68.37;97341.25;7398143;19;19914;-80
2023/04/13 07:41:41;;;;;;;1.88;1.30;;;;;;;9.28;67.37;97345.53;7392791;19;19951;-79
2023/04/13 07:44:13;;;;;;;2.50;1.27;;;;;;;9.31;67.61;97340.72;7396116;19;19923;-79
2023/04/13 07:46:41;;;;;;;2.05;1.00;;;;;;;9.47;67.26;97342.44;7392354;19;19931;-80
2023/04/13 07:49:08;;;;;;;1.55;1.33;;;;;;;9.46;66.99;97338.16;7395329;19;19918;-81
2023/04/13 07:51:37;;;;;;;2.30;1.45;;;;;;;9.59;66.63;97338.41;7391108;19;19952;-78
2023/04/13 07:54:04;;;;;;;5.57;1.50;;;;;;;9.67;66.19;97341.00;7397694;19;19926;-80
2023/04/13 07:56:34;;;;;;;3.22;2.40;;;;;;;9.67;67.18;97342.81;7396186;19;20297;-79
2023/04/13 07:59:02;;;;;;;2.70;0.90;;;;;;;9.62;65.17;97334.59;7393158;19;20474;-80
2023/04/13 08:01:31;;;;;;;2.33;1.75;;;;;;;9.51;65.22;97350.84;7394772;19;19946;-79
2023/04/13 08:04:01;;;;;;;5.63;1.40;;;;;;;9.51;64.04;97342.94;7395695;19;19919;-82
2023/04/13 08:06:29;;;;;;;2.15;1.10;;;;;;;9.58;65.87;97347.31;7396645;19;19930;-78
2023/04/13 08:08:56;;;;;;;3.28;1.20;;;;;;;9.73;65.74;97343.94;7392780;19;20142;-80
2023/04/13 08:11:23;;;;;;;3.28;1.10;;;;;;;9.88;66.09;97344.81;7395318;19;19930;-82
2023/04/13 08:13:56;;;;;;;1.98;0.90;;;;;;;9.91;66.60;97347.09;7391376;19;20562;-79
2023/04/13 08:16:23;;;;;;;5.30;1.50;;;;;;;9.85;66.21;97355.75;7395956;19;19914;-78
2023/04/13 08:18:50;;;;;;;3.08;1.10;;;;;;;9.84;65.60;97351.44;7392123;19;19918;-79
2023/04/13 08:21:19;;;;;;;2.50;0.85;;;;;;;9.92;66.09;97350.56;7392437;19;20360;-81
2023/04/13 08:23:47;;;;;;;3.20;2.15;;;;;;;9.84;65.28;97352.25;7388202;19;19918;-80
2023/04/13 08:26:19;;;;;;;1.45;1.00;;;;;;;9.94;65.18;97341.47;7396968;19;19914;-80
2023/04/13 08:28:47;;;;;;;1.88;1.00;;;;;;;9.89;66.23;97344.63;7389004;19;19922;-78
2023/04/13 08:31:14;;;;;;;2.50;1.00;;;;;;;9.92;65.94;97356.66;7393299;19;19960;-79
2023/04/13 08:33:47;;;;;;;1.88;1.77;;;;;;;9.87;65.99;97351.09;7385846;19;19964;-79
2023/04/13 08:36:16;;;;;;;2.92;1.05;;;;;;;9.85;67.16;97356.56;7391285;19;20345;-78
2023/04/13 08:38:46;;;;;;;2.20;0.82;;;;;;;9.79;66.56;97354.59;7389634;19;20847;-79
2023/04/13 08:41:16;;;;;;;5.63;1.65;;;;;;;9.64;65.71;97357.19;7393321;19;19918;-80
2023/04/13 08:43:49;;;;;;;4.65;1.05;;;;;;;9.52;65.42;97355.94;7386452;19;19923;-82
2023/04/13 08:46:18;;;;;;;4.80;1.75;;;;;;;9.64;66.09;97353.75;7394666;19;19922;-80
2023/04/13 08:48:48;;;;;;;3.50;2.65;;;;;;;9.75;66.75;97358.63;7385425;19;20372;-80
2023/04/13 08:51:23;;;;;;;3.63;1.42;;;;;;;9.77;67.27;97358.41;7390986;19;19918;-79
2023/04/13 08:53:52;;;;;;;2.85;1.75;;;;;;;9.75;65.53;97352.50;7388499;19;19929;-79
2023/04/13 08:56:26;;;;;;;4.72;1.02;;;;;;;9.82;65.85;97351.63;7390109;19;19952;-79
2023/04/13 08:59:14;;;;;;;4.93;1.92;;;;;;;9.69;64.26;97354.03;7391297;19;19919;-79
2023/04/13 09:01:45;;;;;;;4.35;1.40;;;;;;;9.84;64.63;97357.53;7383276;19;19949;-79
2023/04/13 09:04:16;;;;;;;2.13;1.27;;;;;;;9.95;63.90;97355.50;7390545;19;19955;-80
2023/04/13 09:06:49;;;;;;;2.40;1.45;;;;;;;10.08;65.15;97355.72;7389009;19;19923;-80
2023/04/13 09:09:19;;;;;;;2.80;2.13;;;;;;;10.06;65.38;97352.47;7393085;19;20596;-79
2023/04/13 09:11:46;;;;;;;2.63;1.52;;;;;;;10.11;65.58;97364.13;7384314;19;20337;-79
2023/04/13 09:14:20;;;;;;;2.65;2.25;;;;;;;10.17;65.76;97356.50;7389008;19;20416;-80
2023/04/13 09:16:50;;;;;;;2.15;1.40;;;;;;;10.11;64.46;97348.28;7385960;19;19915;-81
2023/04/13 09:19:29;;;;;;;4.35;1.35;;;;;;;10.02;65.61;97370.47;7390312;19;19934;-82
2023/04/13 09:21:56;;;;;;;1.92;1.23;;;;;;;10.17;65.44;97357.31;7392797;19;20547;-82
2023/04/13 09:24:22;;;;;;;4.30;1.40;;;;;;;10.18;64.14;97363.41;7400095;19;19910;-80
2023/04/13 09:26:49;;;;;;;2.38;1.00;;;;;;;10.24;64.14;97357.41;7396393;19;19925;-79
2023/04/13 09:29:18;;;;;;;4.28;1.52;;;;;;;10.42;64.17;97354.47;7395144;19;19951;-81
2023/04/13 09:31:46;;;;;;;7.28;1.13;;;;;;;10.71;64.26;97341.28;7392876;19;19922;-80
2023/04/13 09:34:14;;;;;;;7.15;1.95;;;;;;;10.87;64.02;97345.56;7391985;19;19919;-81
2023/04/13 09:36:41;;;;;;;1.50;0.93;;;;;;;11.16;63.96;97351.84;7393440;19;19927;-81
2023/04/13 09:39:26;;;;;;;5.38;1.25;;;;;;;11.37;61.81;97343.16;7396445;19;19953;-80
2023/04/13 09:41:54;;;;;;;3.53;2.00;;;;;;;11.33;62.39;97342.72;7391269;19;20334;-81
2023/04/13 09:44:26;;;;;;;3.40;1.30;;;;;;;11.13;61.17;97339.00;7399164;19;19970;-79
2023/04/13 09:47:02;;;;;;;2.17;1.33;;;;;;;10.87;61.63;97348.22;7396149;19;19913;-79
2023/04/13 09:49:37;;;;;;;3.50;1.55;;;;;;;10.73;62.70;97356.97;7394671;19;19925;-81
2023/04/13 09:52:06;;;;;;;3.72;1.30;;;;;;;10.72;62.54;97342.94;7384797;19;19910;-79
2023/04/13 09:54:33;;;;;;;3.35;1.20;;;;;;;10.58;62.68;97342.91;7388608;19;19918;-80
2023/04/13 09:57:03;;;;;;;2.30;1.15;;;;;;;10.44;61.76;97342.72;7385013;19;19923;-79
2023/04/13 09:59:31;;;;;;;2.35;0.80;;;;;;;10.49;62.04;97343.00;7396606;19;19926;-80
2023/04/13 10:01:58;;;;;;;4.78;1.20;;;;;;;10.40;61.87;97338.81;7389079;19;19940;-79
2023/04/13 10:04:25;;;;;;;3.53;1.00;;;;;;;10.49;61.94;97347.47;7394087;19;19934;-79
2023/04/13 10:06:52;;;;;;;3.83;1.23;;;;;;;10.44;62.40;97342.72;7392351;19;19919;-80
2023/04/13 10:09:25;;;;;;;2.30;1.17;;;;;;;10.44;62.32;97345.38;7392760;19;19934;-79
2023/04/13 10:11:53;;;;;;;4.00;2.08;;;;;;;10.23;61.26;97340.72;7390155;19;19918;-79
2023/04/13 10:14:25;;;;;;;3.08;1.00;;;;;;;10.33;62.70;97335.22;7397932;19;20329;-80
2023/04/13 10:17:33;;;;;;;3.63;1.15;;;;;;;10.30;63.98;97338.25;7395523;19;19922;-81
2023/04/13 10:20:08;;;;;;;2.83;1.05;;;;;;;10.17;63.25;97336.16;7390317;19;19933;-85
2023/04/13 10:22:36;;;;;;;4.53;1.52;;;;;;;9.98;62.38;97337.47;7392837;19;19937;-80
2023/04/13 10:25:05;;;;;;;4.72;2.45;;;;;;;9.87;63.19;97351.94;7387020;19;20262;-80
2023/04/13 10:27:35;;;;;;;3.17;1.70;;;;;;;9.91;63.26;97347.09;7394140;19;19926;-81
2023/04/13 10:30:15;;;;;;;2.17;1.65;;;;;;;10.00;62.10;97342.56;7389742;19;19943;-81
2023/04/13 10:32:42;;;;;;;2.15;1.48;;;;;;;10.01;62.99;97346.88;7396165;19;19930;-79
2023/04/13 10:35:12;;;;;;;6.72;1.50;;;;;;;10.18;63.39;97337.81;7383753;19;19922;-80
2023/04/13 10:37:40;;;;;;;4.53;1.50;;;;;;;10.23;63.57;97343.38;7397118;19;19930;-81
2023/04/13 10:40:09;;;;;;;3.45;2.15;;;;;;;10.15;62.58;97340.00;7391891;19;19926;-80
2023/04/13 10:42:39;;;;;;;1.73;1.10;;;;;;;10.21;63.29;97341.91;7392330;19;19922;-80
2023/04/13 10:45:22;;;;;;;3.83;1.23;;;;;;;10.30;64.45;97343.53;7395732;19;20370;-80
2023/04/13 10:47:50;;;;;;;2.00;0.77;;;;;;;10.10;62.11;97333.41;7394216;19;19919;-80
2023/04/13 10:50:21;;;;;;;2.85;1.58;;;;;;;9.89;61.82;97341.19;7391681;19;19948;-81
2023/04/13 10:53:03;;;;;;;3.63;1.05;;;;;;;10.05;63.11;97337.59;7388947;19;20439;-80
2023/04/13 10:55:31;;;;;;;2.78;1.17;;;;;;;9.99;63.41;97338.31;7396184;19;19915;-78
2023/04/13 10:58:00;;;;;;;2.72;1.88;;;;;;;10.01;62.77;97347.69;7392369;19;19918;-80
2023/04/13 11:00:29;;;;;;;4.10;1.48;;;;;;;10.13;62.42;97342.78;7393920;19;19939;-79
2023/04/13 11:03:13;;;;;;;1.35;0.77;;;;;;;10.25;61.27;97345.84;7389607;19;20364;-80
2023/04/13 11:05:44;;;;;;;4.60;1.30;;;;;;;10.32;62.79;97345.00;7388649;19;19922;-80
2023/04/13 11:08:19;;;;;;;3.35;1.35;;;;;;;10.29;61.73;97344.50;7389000;19;20218;-79
2023/04/13 11:10:53;;;;;;;2.55;1.38;;;;;;;10.25;61.90;97338.72;7391783;19;19954;-80
2023/04/13 11:13:23;;;;;;;5.05;1.42;;;;;;;10.32;61.60;97344.16;7394184;19;19919;-82
2023/04/13 11:15:51;;;;;;;2.40;1.20;;;;;;;10.32;61.53;97333.56;7379574;19;19936;-80
2023/04/13 11:18:25;;;;;;;6.35;1.63;;;;;;;10.53;62.10;97336.38;7391799;19;19922;-80
2023/04/13 11:20:54;;;;;;;3.97;0.95;;;;;;;10.51;61.74;97338.34;7386577;19;19923;-79
2023/04/13 11:23:22;;;;;;;1.70;1.38;;;;;;;10.49;60.41;97337.72;7387013;19;19923;-81
2023/04/13 11:25:56;;;;;;;3.47;1.55;;;;;;;10.62;60.67;97334.44;7389956;19;19942;-81
2023/04/13 11:28:34;;;;;;;3.03;1.52;;;;;;;10.58;61.10;97345.56;7387313;19;19938;-81
2023/04/13 11:31:06;;;;;;;5.90;1.63;;;;;;;10.40;63.50;97343.25;7381973;19;20423;-81
2023/04/13 11:33:33;;;;;;;4.25;1.20;;;;;;;10.00;64.06;97361.88;7383184;19;19918;-82
2023/04/13 11:36:00;;;;;;;3.42;1.45;;;;;;;9.75;65.07;97360.44;7385010;19;19919;-83
2023/04/13 11:38:27;;;;;;;3.40;1.48;;;;;;;9.57;67.69;97364.16;7393383;19;19924;-81
2023/04/13 11:41:01;;;;;;;2.33;1.00;;;;;;;9.63;70.60;97365.28;7387104;19;19919;-82
2023/04/13 11:43:44;;;;;;;2.67;1.38;;;;;;;9.55;72.83;97363.50;7391750;19;19922;-83
2023/04/13 11:46:14;;;;;;;3.97;1.60;;;;;;;9.63;73.67;97360.00;7381048;19;19925;-82
2023/04/13 11:48:42;;;;;;;2.17;1.30;;;;;;;9.75;74.09;97358.63;7392220;19;19910;-82
2023/04/13 11:51:10;;;;;;;4.20;2.10;;;;;;;9.93;73.97;97350.41;7384513;19;19937;-82
2023/04/13 11:53:38;;;;;;;3.13;1.73;;;;;;;10.04;73.94;97349.97;7393245;19;19970;-82
2023/04/13 11:56:05;;;;;;;4.30;1.65;;;;;;;10.24;73.63;97344.19;7389113;19;20348;-82